Time,TemperatureF,DewpointF,PressureIn,WindDirection,WindDirectionDegrees,WindSpeedMPH,WindSpeedGustMPH,Humidity,HourlyPrecipIn,Conditions,Clouds,dailyrainin,SolarRadiationWatts/m^2,SoftwareType,DateUTC
2013-06-13 00:23:00,62.0,62.0,-100.00,East,99,4.0,8.0,100,0.00,,,0.09,1.000000,,2013-06-13 04:23:00,
2013-06-13 00:33:00,62.0,62.0,-100.00,East,99,4.0,8.0,100,0.00,,,0.09,1.000000,,2013-06-13 04:33:00,
2013-06-13 00:43:00,62.0,62.0,-100.00,East,99,4.0,8.0,100,0.00,,,0.09,1.000000,,2013-06-13 04:43:00,
2013-06-13 00:53:00,62.0,62.0,-100.00,East,99,4.0,8.0,100,0.00,,,0.09,1.000000,,2013-06-13 04:53:00,
2013-06-13 01:24:00,63.0,63.0,-100.00,East,87,3.0,8.0,100,0.00,,,0.06,1.000000,,2013-06-13 05:24:00,
2013-06-13 01:33:00,63.0,63.0,-100.00,East,87,3.0,8.0,100,0.00,,,0.06,1.000000,,2013-06-13 05:33:00,
2013-06-13 01:43:00,63.0,63.0,-100.00,East,87,3.0,8.0,100,0.00,,,0.06,1.000000,,2013-06-13 05:43:00,
2013-06-13 01:53:00,63.0,63.0,-100.00,East,87,3.0,8.0,100,0.00,,,0.06,1.000000,,2013-06-13 05:53:00,
2013-06-13 02:22:00,67.0,60.0,-100.00,SE,124,4.0,8.0,79,0.00,,,0.03,1.000000,,2013-06-13 06:22:00,
2013-06-13 02:33:00,67.0,60.0,-100.00,SE,124,4.0,8.0,79,0.00,,,0.03,1.000000,,2013-06-13 06:33:00,
2013-06-13 02:44:00,67.0,60.0,-100.00,SE,124,4.0,8.0,79,0.00,,,0.03,1.000000,,2013-06-13 06:44:00,
2013-06-13 02:52:00,67.0,60.0,-100.00,SE,124,4.0,8.0,79,0.00,,,0.03,1.000000,,2013-06-13 06:52:00,
2013-06-13 03:22:00,66.0,59.0,-100.00,SSE,154,3.0,11.0,78,0.00,,,0.01,1.000000,,2013-06-13 07:22:00,
2013-06-13 03:33:00,66.0,59.0,-100.00,SSE,154,3.0,11.0,78,0.00,,,0.01,1.000000,,2013-06-13 07:33:00,
2013-06-13 03:42:00,66.0,59.0,-100.00,SSE,154,3.0,11.0,78,0.00,,,0.01,1.000000,,2013-06-13 07:42:00,
2013-06-13 03:52:00,66.0,59.0,-100.00,SSE,154,3.0,11.0,78,0.00,,,0.01,1.000000,,2013-06-13 07:52:00,
2013-06-13 04:22:00,62.0,62.0,-100.00,SE,129,5.0,10.0,100,0.00,,,0.00,1.000000,,2013-06-13 08:22:00,
2013-06-13 04:32:00,62.0,62.0,-100.00,SE,129,5.0,10.0,100,0.00,,,0.00,1.000000,,2013-06-13 08:32:00,
2013-06-13 04:43:00,62.0,62.0,-100.00,SE,129,5.0,10.0,100,0.00,,,0.00,1.000000,,2013-06-13 08:43:00,
2013-06-13 04:52:00,62.0,62.0,-100.00,SE,129,5.0,10.0,100,0.00,,,0.00,1.000000,,2013-06-13 08:52:00,
2013-06-13 05:22:00,62.0,62.0,-100.00,SSE,151,4.0,14.0,100,0.00,,,0.00,1.000000,,2013-06-13 09:22:00,
2013-06-13 05:32:00,62.0,62.0,-100.00,SSE,151,4.0,14.0,100,0.00,,,0.00,1.000000,,2013-06-13 09:32:00,
2013-06-13 05:42:00,62.0,62.0,-100.00,SSE,151,4.0,14.0,100,0.00,,,0.00,1.000000,,2013-06-13 09:42:00,
2013-06-13 05:52:00,62.0,62.0,-100.00,SSE,151,4.0,14.0,100,0.00,,,0.00,1.000000,,2013-06-13 09:52:00,
2013-06-13 06:22:00,64.0,64.0,-100.00,ESE,110,8.0,17.0,100,0.01,,,0.01,2.000000,,2013-06-13 10:22:00,
2013-06-13 06:33:00,64.0,64.0,-100.00,ESE,110,8.0,17.0,100,0.01,,,0.01,2.000000,,2013-06-13 10:33:00,
2013-06-13 06:43:00,64.0,64.0,-100.00,ESE,110,8.0,17.0,100,0.01,,,0.01,2.000000,,2013-06-13 10:43:00,
2013-06-13 06:53:00,64.0,64.0,-100.00,ESE,110,8.0,17.0,100,0.01,,,0.01,2.000000,,2013-06-13 10:53:00,
2013-06-13 07:24:00,63.0,63.0,-100.00,ESE,110,5.0,13.0,100,0.00,,,0.01,16.000000,,2013-06-13 11:24:00,
2013-06-13 07:32:00,63.0,63.0,-100.00,ESE,110,5.0,13.0,100,0.00,,,0.01,16.000000,,2013-06-13 11:32:00,
2013-06-13 07:42:00,63.0,63.0,-100.00,ESE,110,5.0,13.0,100,0.00,,,0.01,16.000000,,2013-06-13 11:42:00,
2013-06-13 07:52:00,63.0,63.0,-100.00,ESE,110,5.0,13.0,100,0.00,,,0.01,16.000000,,2013-06-13 11:52:00,
2013-06-13 08:22:00,62.0,62.0,-100.00,WSW,244,2.0,12.0,100,0.00,,,0.01,5.000000,,2013-06-13 12:22:00,
2013-06-13 08:35:00,62.0,62.0,-100.00,WSW,244,2.0,12.0,100,0.00,,,0.01,5.000000,,2013-06-13 12:35:00,
2013-06-13 08:43:00,62.0,62.0,-100.00,WSW,244,2.0,12.0,100,0.00,,,0.01,5.000000,,2013-06-13 12:43:00,
2013-06-13 08:52:00,62.0,62.0,-100.00,WSW,244,2.0,12.0,100,0.00,,,0.01,5.000000,,2013-06-13 12:52:00,
2013-06-13 09:22:00,62.0,62.0,-100.00,ESE,112,9.0,16.0,100,0.01,,,0.02,41.000000,,2013-06-13 13:22:00,
2013-06-13 09:33:00,62.0,62.0,-100.00,ESE,112,9.0,16.0,100,0.01,,,0.02,41.000000,,2013-06-13 13:33:00,
2013-06-13 09:43:00,62.0,62.0,-100.00,ESE,112,9.0,16.0,100,0.01,,,0.02,41.000000,,2013-06-13 13:43:00,
2013-06-13 09:53:00,62.0,62.0,-100.00,ESE,112,9.0,16.0,100,0.01,,,0.02,41.000000,,2013-06-13 13:53:00,
2013-06-13 10:22:00,65.0,65.0,-100.00,SE,128,7.0,22.0,100,0.02,,,0.04,300.000000,,2013-06-13 14:22:00,
2013-06-13 10:33:00,65.0,65.0,-100.00,SE,128,7.0,22.0,100,0.02,,,0.04,300.000000,,2013-06-13 14:33:00,
2013-06-13 10:43:00,65.0,65.0,-100.00,SE,128,7.0,22.0,100,0.02,,,0.04,300.000000,,2013-06-13 14:43:00,
2013-06-13 10:53:00,65.0,65.0,-100.00,SE,128,7.0,22.0,100,0.02,,,0.04,300.000000,,2013-06-13 14:53:00,
2013-06-13 11:22:00,66.0,65.0,-100.00,SE,125,7.0,15.0,97,0.04,,,0.08,464.000000,,2013-06-13 15:22:00,
2013-06-13 11:33:00,66.0,65.0,-100.00,SE,125,7.0,15.0,97,0.04,,,0.08,464.000000,,2013-06-13 15:33:00,
2013-06-13 11:43:00,66.0,65.0,-100.00,SE,125,7.0,15.0,97,0.04,,,0.08,464.000000,,2013-06-13 15:43:00,
2013-06-13 11:53:00,66.0,65.0,-100.00,SE,125,7.0,15.0,97,0.04,,,0.08,464.000000,,2013-06-13 15:53:00,
2013-06-13 12:22:00,66.0,66.0,-100.00,SE,134,6.0,14.0,100,0.05,,,0.13,282.000000,,2013-06-13 16:22:00,
2013-06-13 12:33:00,66.0,66.0,-100.00,SE,134,6.0,14.0,100,0.05,,,0.13,282.000000,,2013-06-13 16:33:00,
2013-06-13 12:43:00,66.0,66.0,-100.00,SE,134,6.0,14.0,100,0.05,,,0.13,282.000000,,2013-06-13 16:43:00,
2013-06-13 12:53:00,66.0,66.0,-100.00,SE,134,6.0,14.0,100,0.05,,,0.13,282.000000,,2013-06-13 16:53:00,
2013-06-13 13:25:00,72.0,68.0,-100.00,ESE,103,5.0,11.0,88,0.05,,,0.18,762.000000,,2013-06-13 17:25:00,
2013-06-13 13:33:00,72.0,68.0,-100.00,ESE,103,5.0,11.0,88,0.05,,,0.18,762.000000,,2013-06-13 17:33:00,
2013-06-13 13:43:00,72.0,68.0,-100.00,ESE,103,5.0,11.0,88,0.05,,,0.18,762.000000,,2013-06-13 17:43:00,
2013-06-13 13:53:00,72.0,68.0,-100.00,ESE,103,5.0,11.0,88,0.05,,,0.18,762.000000,,2013-06-13 17:53:00,
2013-06-13 14:22:00,72.0,68.0,-100.00,ESE,120,7.0,13.0,87,0.08,,,0.26,437.000000,,2013-06-13 18:22:00,
2013-06-13 14:33:00,72.0,68.0,-100.00,ESE,120,7.0,13.0,87,0.08,,,0.26,437.000000,,2013-06-13 18:33:00,
2013-06-13 14:43:00,72.0,68.0,-100.00,ESE,120,7.0,13.0,87,0.08,,,0.26,437.000000,,2013-06-13 18:43:00,
2013-06-13 14:52:00,72.0,68.0,-100.00,ESE,120,7.0,13.0,87,0.08,,,0.26,437.000000,,2013-06-13 18:52:00,
2013-06-13 15:22:00,74.0,70.0,-100.00,SW,233,5.0,13.0,86,0.10,,,0.36,348.000000,,2013-06-13 19:22:00,
2013-06-13 15:33:00,74.0,70.0,-100.00,SW,233,5.0,13.0,86,0.10,,,0.36,348.000000,,2013-06-13 19:33:00,
2013-06-13 15:43:00,74.0,70.0,-100.00,SW,233,5.0,13.0,86,0.10,,,0.36,348.000000,,2013-06-13 19:43:00,
2013-06-13 15:53:00,74.0,70.0,-100.00,SW,233,5.0,13.0,86,0.10,,,0.36,348.000000,,2013-06-13 19:53:00,
2013-06-13 16:33:00,73.0,68.0,-100.00,West,265,4.0,11.0,84,0.09,,,0.45,201.000000,,2013-06-13 20:33:00,
2013-06-13 16:44:00,73.0,68.0,-100.00,West,265,4.0,11.0,84,0.09,,,0.45,201.000000,,2013-06-13 20:44:00,
2013-06-13 16:53:00,73.0,68.0,-100.00,West,265,4.0,11.0,84,0.09,,,0.45,201.000000,,2013-06-13 20:53:00,
2013-06-13 17:22:00,73.0,67.0,-100.00,West,267,5.0,13.0,82,0.08,,,0.53,338.000000,,2013-06-13 21:22:00,
2013-06-13 17:34:00,73.0,67.0,-100.00,West,267,5.0,13.0,82,0.08,,,0.53,338.000000,,2013-06-13 21:34:00,
2013-06-13 17:43:00,73.0,67.0,-100.00,West,267,5.0,13.0,82,0.08,,,0.53,338.000000,,2013-06-13 21:43:00,
2013-06-13 17:52:00,73.0,67.0,-100.00,West,267,5.0,13.0,82,0.08,,,0.53,338.000000,,2013-06-13 21:52:00,
2013-06-13 18:22:00,70.0,67.0,-100.00,West,268,3.0,13.0,91,0.06,,,0.59,147.000000,,2013-06-13 22:22:00,
2013-06-13 18:33:00,70.0,67.0,-100.00,West,268,3.0,13.0,91,0.06,,,0.59,147.000000,,2013-06-13 22:33:00,
2013-06-13 18:43:00,70.0,67.0,-100.00,West,268,3.0,13.0,91,0.06,,,0.59,147.000000,,2013-06-13 22:43:00,
2013-06-13 18:52:00,70.0,67.0,-100.00,West,268,3.0,13.0,91,0.06,,,0.59,147.000000,,2013-06-13 22:52:00,
2013-06-13 19:32:00,66.0,65.0,-100.00,West,266,6.0,13.0,96,0.06,,,0.65,59.000000,,2013-06-13 23:32:00,
2013-06-13 19:43:00,66.0,65.0,-100.00,West,266,6.0,13.0,96,0.06,,,0.65,59.000000,,2013-06-13 23:43:00,
2013-06-13 19:52:00,66.0,65.0,-100.00,West,266,6.0,13.0,96,0.06,,,0.65,59.000000,,2013-06-13 23:52:00,
2013-06-13 20:22:00,64.0,64.0,-100.00,WSW,248,6.0,11.0,100,0.05,,,0.70,18.000000,,2013-06-14 00:22:00,
2013-06-13 20:34:00,64.0,64.0,-100.00,WSW,248,6.0,11.0,100,0.05,,,0.70,18.000000,,2013-06-14 00:34:00,
2013-06-13 20:43:00,64.0,64.0,-100.00,WSW,248,6.0,11.0,100,0.05,,,0.70,18.000000,,2013-06-14 00:43:00,
2013-06-13 20:53:00,64.0,64.0,-100.00,WSW,248,6.0,11.0,100,0.05,,,0.70,18.000000,,2013-06-14 00:53:00,
2013-06-13 21:22:00,62.0,62.0,-100.00,SSW,203,5.0,19.0,100,0.03,,,0.73,3.000000,,2013-06-14 01:22:00,
2013-06-13 21:33:00,62.0,62.0,-100.00,SSW,203,5.0,19.0,100,0.03,,,0.73,3.000000,,2013-06-14 01:33:00,
2013-06-13 21:43:00,62.0,62.0,-100.00,SSW,203,5.0,19.0,100,0.03,,,0.73,3.000000,,2013-06-14 01:43:00,
2013-06-13 21:52:00,62.0,62.0,-100.00,SSW,203,5.0,19.0,100,0.03,,,0.73,3.000000,,2013-06-14 01:52:00,
2013-06-13 22:22:00,59.0,59.0,-100.00,SSW,203,5.0,15.0,100,0.02,,,0.75,1.000000,,2013-06-14 02:22:00,
2013-06-13 22:33:00,59.0,59.0,-100.00,SSW,203,5.0,15.0,100,0.02,,,0.75,1.000000,,2013-06-14 02:33:00,
2013-06-13 22:43:00,59.0,59.0,-100.00,SSW,203,5.0,15.0,100,0.02,,,0.75,1.000000,,2013-06-14 02:43:00,
2013-06-13 22:52:00,59.0,59.0,-100.00,SSW,203,5.0,15.0,100,0.02,,,0.75,1.000000,,2013-06-14 02:52:00,
2013-06-13 23:22:00,58.0,58.0,-100.00,SSE,164,5.0,14.0,100,0.01,,,0.76,1.000000,,2013-06-14 03:22:00,
2013-06-13 23:34:00,58.0,58.0,-100.00,SSE,164,5.0,14.0,100,0.01,,,0.76,1.000000,,2013-06-14 03:34:00,
2013-06-13 23:43:00,58.0,58.0,-100.00,SSE,164,5.0,14.0,100,0.01,,,0.76,1.000000,,2013-06-14 03:43:00,
2013-06-13 23:53:00,58.0,58.0,-100.00,SSE,164,5.0,14.0,100,0.01,,,0.76,1.000000,,2013-06-14 03:53:00,